Alvin, WI

2:15 PM CDT on July 26, 2014 (GMT -0500)
Argonne, WI (KWIARGON2) Elev 1620 ft | 45.65 °N, 88.86 °W | Change Station

Current weather conditions updated 42 seconds ago

Scattered Clouds
Scattered Clouds
78.1 °F
Feels Like 80 °F
N
4.0
Wind Variable Wind from WNW
Gusts 11.0 mph

Today is forecast to be Much Warmer than yesterday. Thundershowers late tonight.

Today
High -- | Low -- °F
--% Chance of Precip.
Yesterday
High -- | Low -- °F
Precip. -- in
5:30 AM 8:31 PM
Waning Crescent, 0% visible
Pressure 29.72 in
Visibility 10.0 miles
Clouds Scattered Clouds 4600 ft
Scattered Clouds 6000 ft
Heat Index 80 °F
Dew Point 61 °F
Humidity 55%
Rainfall 0.52 in
Snow Depth Not available.
UV 8 out of 12
Pollen 6.70 out of 12
Air Quality Not available.
Flu Activity Not available.
METAR KIMT 261854Z AUTO 29013G18KT 10SM SCT046 SCT060 28/16 A2973 RMK AO2 SLP063 T02830156

More Conditions Fewer Conditions

Pressure 29.72 in
Visibility 10.0 miles
Clouds Scattered Clouds 4600 ft
Scattered Clouds 6000 ft
Heat Index 80 °F
Dew Point 61 °F
Humidity 55%
Rainfall 0.52 in
Snow Depth Not available.
UV 8 out of 12
Pollen 6.70 out of 12
Air Quality Not available.
Flu Activity Not available.
METAR KIMT 261854Z AUTO 29013G18KT 10SM SCT046 SCT060 28/16 A2973 RMK AO2 SLP063 T02830156

More Conditions Fewer Conditions

10-Day Weather Forecast

Almanac

Astronomy

Jul. 26, 2014 Rise Set
Actual Time 5:30 AM CDT 8:31 PM CDT
Civil Twilight 4:55 AM CDT 9:06 PM CDT
Nautical Twilight 4:09 AM CDT 9:51 PM CDT
Astronomical Twilight 3:14 AM CDT 10:45 PM CDT
Moon 5:26 AM CDT 8:00 PM CDT
Length of Visible Light 16h 11m
Length of Day
15h 00m
Tomorrow will be 2m 17s shorter.
Waning Crescent, 0% of the Moon is Illuminated
Today
Waning Crescent
Jul 26
New
Aug 3
First Quarter
Aug 10
Full
Aug 17
Last Quarter

Today's Extremes

State Highs State Lows

Community

WunderPhotos

Upload Photos

1,737,672 photos uploaded!

Nearby

Snow Depth

Station Depth Elevation
No new snow has been reported.

Earthquake Activity

City Distance Mag. Time & Date
No recent earthquake activity has been reported nearby.
Minimum magnitude displayed is 2.5.

Coastal Water Temperatures

Place Temperature
No Stations Reporting

Nearby Weather Stations

Station Location Temp. Heat Index Dew Point Humidity Wind Precip. Elev Updated Type
Argonne, WI, Argonne, WI 78.1 °F 80 °F 61 °F 55% WNW  at  4.0 mph 0.00 in / hr 1620 ft 2:14 PM CDT Normal
Three Lakes - Little Fork Lake, WI 79.4 °F 81 °F 61 °F 53% ESE  at  0.0 mph 0.00 in / hr 1617 ft 2:14 PM CDT Rapid Fire
RAWS PHELPS WI, Phelps, WI 79 °F 80 °F 56 °F 46% NW  at  5 mph 0.00 in / hr 1770 ft 1:02 PM CDT MADIS
Spread Eagle Skies, Florence, WI 81.7 °F 82 °F 58 °F 44% NW  at  2.0 mph 0.00 in / hr 1224 ft 2:15 PM CDT Rapid Fire

Show More Stations Show Fewer Stations